createdAt,value
2017-09-08T00:00:47.515Z,72.00
2017-09-08T00:03:15.113Z,72.00
2017-09-08T00:05:42.682Z,72.00
2017-09-08T00:08:10.269Z,72.30
2017-09-08T00:10:37.885Z,72.80
2017-09-08T00:13:05.508Z,72.90
2017-09-08T00:15:33.115Z,72.90
2017-09-08T00:18:01.424Z,73.10
2017-09-08T00:20:29.038Z,73.00
2017-09-08T00:22:57.212Z,72.90
2017-09-08T00:25:24.782Z,72.60
2017-09-08T00:27:53.160Z,72.40
2017-09-08T00:30:20.778Z,72.40
2017-09-08T00:32:48.372Z,72.60
2017-09-08T00:35:15.987Z,72.40
2017-09-08T00:37:43.587Z,72.20
2017-09-08T00:40:11.197Z,72.50
2017-09-08T00:42:38.840Z,72.80
2017-09-08T00:45:06.465Z,73.00
2017-09-08T00:47:35.028Z,73.20
2017-09-08T00:50:02.658Z,73.50
2017-09-08T00:52:30.230Z,73.40
2017-09-08T00:54:57.838Z,73.10
2017-09-08T00:57:25.434Z,73.30
2017-09-08T00:59:53.814Z,73.50
2017-09-08T01:02:23.182Z,73.50
2017-09-08T01:04:50.773Z,73.50
2017-09-08T01:07:19.487Z,73.70
2017-09-08T01:09:47.074Z,73.40
2017-09-08T01:12:15.463Z,73.30
2017-09-08T01:14:43.037Z,73.20
2017-09-08T01:17:11.471Z,72.70
2017-09-08T01:19:39.058Z,72.40
2017-09-08T01:22:06.646Z,72.60
2017-09-08T01:24:34.255Z,72.30
2017-09-08T01:27:01.869Z,71.70
2017-09-08T01:29:29.470Z,72.00
2017-09-08T01:31:57.078Z,71.60
2017-09-08T01:34:24.696Z,71.20
2017-09-08T01:36:52.264Z,71.10
2017-09-08T01:39:19.864Z,70.90
2017-09-08T01:41:47.485Z,70.60
2017-09-08T01:44:15.070Z,70.90
2017-09-08T01:46:42.694Z,70.60
2017-09-08T01:49:10.287Z,70.60
2017-09-08T01:51:37.888Z,70.00
2017-09-08T01:54:05.455Z,69.70
2017-09-08T01:56:33.061Z,69.60
2017-09-08T01:59:00.641Z,69.70
2017-09-08T02:01:28.236Z,69.60
2017-09-08T02:03:55.860Z,70.10
2017-09-08T02:06:24.199Z,69.50
2017-09-08T02:08:51.803Z,69.70
2017-09-08T02:11:19.397Z,69.80
2017-09-08T02:13:46.995Z,70.10
2017-09-08T02:16:14.595Z,70.10
2017-09-08T02:18:42.227Z,70.10
2017-09-08T02:21:10.584Z,71.10
2017-09-08T02:23:38.910Z,70.80
2017-09-08T02:26:07.313Z,70.50
2017-09-08T02:28:35.682Z,71.10
2017-09-08T02:31:03.444Z,71.00
2017-09-08T02:33:31.061Z,71.20
2017-09-08T02:35:58.681Z,71.20
2017-09-08T02:38:26.265Z,71.30
2017-09-08T02:40:54.617Z,72.50
2017-09-08T02:43:23.001Z,72.00
2017-09-08T02:45:50.618Z,71.90
2017-09-08T02:48:18.208Z,72.10
2017-09-08T02:50:45.778Z,72.00
2017-09-08T02:53:14.126Z,73.30
2017-09-08T02:55:41.723Z,72.50
2017-09-08T02:58:09.319Z,72.80
2017-09-08T03:00:36.927Z,72.80
2017-09-08T03:03:04.628Z,73.00
2017-09-08T03:05:32.215Z,73.20
2017-09-08T03:07:59.822Z,73.20
2017-09-08T03:10:28.154Z,73.50
2017-09-08T03:12:55.740Z,74.20
2017-09-08T03:15:24.106Z,74.20
2017-09-08T03:17:51.696Z,74.20
2017-09-08T03:20:19.291Z,74.40
2017-09-08T03:22:46.887Z,74.40
2017-09-08T03:25:14.470Z,74.80
2017-09-08T03:27:43.395Z,75.90
2017-09-08T03:30:10.968Z,75.20
2017-09-08T03:32:38.578Z,75.50
2017-09-08T03:35:06.167Z,75.50
2017-09-08T03:37:33.773Z,75.60
2017-09-08T03:40:01.349Z,75.60
2017-09-08T03:42:28.999Z,76.00
2017-09-08T03:44:57.365Z,75.70
2017-09-08T03:47:25.742Z,76.40
2017-09-08T03:49:53.314Z,76.40
2017-09-08T03:52:20.935Z,76.40
2017-09-08T03:54:49.293Z,77.10
2017-09-08T03:57:17.644Z,77.10
2017-09-08T03:59:45.230Z,76.90
2017-09-08T04:02:12.820Z,77.30
2017-09-08T04:04:40.422Z,77.10
2017-09-08T04:07:08.023Z,77.70
2017-09-08T04:09:35.619Z,77.60
2017-09-08T04:12:03.976Z,77.50
2017-09-08T04:14:31.609Z,77.50
2017-09-08T04:16:59.223Z,77.60
2017-09-08T04:19:27.360Z,77.30
2017-09-08T04:21:55.946Z,77.50
2017-09-08T04:24:23.563Z,78.00
2017-09-08T04:26:51.175Z,78.10
2017-09-08T04:29:18.769Z,77.90
2017-09-08T04:31:46.355Z,78.00
2017-09-08T04:34:13.921Z,77.90
2017-09-08T04:36:43.458Z,78.20
2017-09-08T04:39:11.038Z,78.20
2017-09-08T04:41:38.634Z,78.40
2017-09-08T04:44:06.261Z,78.50
2017-09-08T04:46:33.822Z,78.90
2017-09-08T04:49:01.420Z,79.10
2017-09-08T04:51:29.010Z,79.10
2017-09-08T04:53:56.954Z,79.00
2017-09-08T04:56:25.573Z,79.10
2017-09-08T04:58:53.146Z,79.20
2017-09-08T05:01:21.339Z,78.90
2017-09-08T05:03:49.668Z,78.90
2017-09-08T05:06:17.258Z,78.90
2017-09-08T05:08:44.824Z,78.80
2017-09-08T05:11:12.506Z,78.50
2017-09-08T05:13:40.114Z,78.30
2017-09-08T05:16:07.713Z,78.40
2017-09-08T05:18:35.290Z,78.00
2017-09-08T05:21:02.857Z,77.60
2017-09-08T05:23:30.562Z,77.30
2017-09-08T05:25:58.150Z,78.20
2017-09-08T05:28:25.748Z,77.80
2017-09-08T05:30:53.332Z,77.60
2017-09-08T05:33:21.711Z,77.10
2017-09-08T05:35:49.323Z,77.70
2017-09-08T05:38:16.939Z,76.90
2017-09-08T05:40:44.576Z,76.00
2017-09-08T05:43:12.161Z,75.90
2017-09-08T05:45:39.742Z,75.70
2017-09-08T05:48:07.326Z,75.90
2017-09-08T05:50:34.930Z,75.30
2017-09-08T05:53:02.509Z,75.10
2017-09-08T05:55:30.886Z,74.30
2017-09-08T05:57:58.511Z,74.00
2017-09-08T06:00:26.104Z,73.80
2017-09-08T06:02:53.707Z,73.20
2017-09-08T06:05:21.288Z,73.10
2017-09-08T06:07:48.955Z,72.60
2017-09-08T06:10:17.614Z,72.50
2017-09-08T06:12:45.272Z,72.40
2017-09-08T06:15:12.872Z,71.90
2017-09-08T06:17:40.501Z,71.70
2017-09-08T06:20:08.093Z,71.70
2017-09-08T06:22:35.685Z,71.10
2017-09-08T06:25:03.281Z,71.50
2017-09-08T06:27:31.039Z,71.10
2017-09-08T06:29:59.205Z,70.70
2017-09-08T06:32:26.779Z,70.70
2017-09-08T06:34:54.398Z,70.70
2017-09-08T06:37:22.069Z,70.90
2017-09-08T06:39:50.444Z,69.60
2017-09-08T06:42:18.046Z,69.80
2017-09-08T06:44:45.641Z,69.70
2017-09-08T06:47:13.245Z,69.60
2017-09-08T06:49:40.881Z,69.70
2017-09-08T06:52:08.542Z,69.00
2017-09-08T06:54:36.236Z,69.40
2017-09-08T06:57:03.841Z,69.10
2017-09-08T06:59:32.151Z,68.30
2017-09-08T07:01:59.826Z,68.30
2017-09-08T07:04:28.411Z,67.50
2017-09-08T07:06:56.014Z,67.70
2017-09-08T07:09:23.595Z,67.80
2017-09-08T07:11:51.189Z,66.40
2017-09-08T07:14:18.771Z,66.50
2017-09-08T07:16:46.415Z,66.60
2017-09-08T07:19:14.023Z,66.50
2017-09-08T07:21:41.623Z,67.20
2017-09-08T07:24:09.209Z,66.00
2017-09-08T07:26:36.815Z,65.50
2017-09-08T07:29:04.450Z,65.50
2017-09-08T07:31:32.123Z,65.50
2017-09-08T07:33:59.728Z,65.10
2017-09-08T07:36:28.137Z,64.20
2017-09-08T07:38:55.771Z,64.10
2017-09-08T07:41:24.011Z,64.60
2017-09-08T07:43:51.619Z,65.30
2017-09-08T07:46:19.987Z,64.00
2017-09-08T07:48:47.618Z,64.00
2017-09-08T07:51:15.197Z,63.60
2017-09-08T07:53:42.780Z,63.50
2017-09-08T07:56:10.360Z,63.70
2017-09-08T07:58:38.040Z,63.70
2017-09-08T08:01:05.646Z,62.30
2017-09-08T08:03:35.815Z,62.30
2017-09-08T08:06:03.454Z,62.30
2017-09-08T08:08:31.060Z,62.50
2017-09-08T08:10:59.493Z,61.80
2017-09-08T08:13:29.487Z,62.20
2017-09-08T08:15:57.091Z,61.50
2017-09-08T08:18:24.703Z,61.70
2017-09-08T08:20:53.079Z,61.50
2017-09-08T08:23:20.693Z,60.90
2017-09-08T08:25:48.318Z,61.40
2017-09-08T08:28:18.081Z,61.00
2017-09-08T08:30:45.695Z,60.70
2017-09-08T08:33:13.291Z,61.20
2017-09-08T08:35:40.879Z,60.50
2017-09-08T08:38:08.518Z,60.50
2017-09-08T08:40:37.800Z,59.90
2017-09-08T08:43:05.428Z,59.30
2017-09-08T08:45:33.023Z,58.80
2017-09-08T08:48:01.433Z,59.00
2017-09-08T08:50:29.043Z,59.00
2017-09-08T08:52:57.455Z,59.40
2017-09-08T08:55:25.082Z,58.90
2017-09-08T08:57:52.680Z,58.90
2017-09-08T09:00:20.297Z,59.60
2017-09-08T09:02:47.868Z,58.90
2017-09-08T09:05:15.451Z,58.50
2017-09-08T09:07:43.051Z,59.30
2017-09-08T09:10:10.639Z,59.20
2017-09-08T09:12:38.256Z,59.40
2017-09-08T09:15:05.860Z,59.20
2017-09-08T09:17:34.333Z,59.50
2017-09-08T09:20:01.930Z,59.50
2017-09-08T09:22:29.508Z,58.40
2017-09-08T09:24:57.900Z,58.20
2017-09-08T09:27:25.494Z,58.20
2017-09-08T09:29:53.107Z,58.50
2017-09-08T09:32:20.721Z,58.30
2017-09-08T09:34:49.135Z,58.50
2017-09-08T09:37:16.730Z,59.00
2017-09-08T09:39:44.356Z,58.90
2017-09-08T09:42:14.127Z,59.40
2017-09-08T09:44:41.770Z,59.60
2017-09-08T09:47:09.399Z,59.50
2017-09-08T09:49:36.991Z,59.60
2017-09-08T09:52:04.606Z,59.40
2017-09-08T09:54:32.233Z,59.00
2017-09-08T09:56:59.848Z,59.00
2017-09-08T09:59:27.479Z,59.00
2017-09-08T10:01:55.053Z,58.40
2017-09-08T10:04:22.645Z,58.60
2017-09-08T10:06:50.229Z,58.10
2017-09-08T10:09:18.637Z,58.80
2017-09-08T10:11:46.234Z,58.40
2017-09-08T10:14:13.847Z,58.30
2017-09-08T10:16:41.427Z,58.20
2017-09-08T10:19:09.028Z,58.50
2017-09-08T10:21:36.591Z,58.00
2017-09-08T10:24:04.209Z,59.10
2017-09-08T10:26:31.803Z,58.20
2017-09-08T10:29:00.157Z,58.10
2017-09-08T10:31:28.559Z,58.00
2017-09-08T10:33:57.009Z,57.10
2017-09-08T10:36:24.625Z,57.10
2017-09-08T10:38:52.203Z,56.30
2017-09-08T10:41:19.963Z,56.60
2017-09-08T10:43:47.589Z,56.80
2017-09-08T10:46:15.188Z,56.30
2017-09-08T10:48:42.781Z,55.80
2017-09-08T10:51:11.160Z,54.60
2017-09-08T10:53:38.774Z,54.60
2017-09-08T10:56:06.367Z,55.00
2017-09-08T10:58:33.962Z,54.10
2017-09-08T11:01:01.614Z,53.70
2017-09-08T11:03:29.987Z,52.60
2017-09-08T11:05:58.589Z,52.60
2017-09-08T11:08:28.688Z,53.00
2017-09-08T11:10:56.420Z,53.40
2017-09-08T11:13:24.067Z,53.10
2017-09-08T11:15:52.643Z,51.90
2017-09-08T11:18:20.364Z,51.80
2017-09-08T11:20:47.991Z,51.70
2017-09-08T11:23:15.571Z,52.30
2017-09-08T11:25:43.966Z,53.60
2017-09-08T11:28:12.083Z,53.60
2017-09-08T11:30:39.724Z,53.50
2017-09-08T11:33:12.870Z,54.70
2017-09-08T11:35:46.048Z,54.20
2017-09-08T11:38:14.011Z,54.10
2017-09-08T11:40:41.657Z,54.00
2017-09-08T11:43:10.053Z,53.40
2017-09-08T11:45:37.627Z,53.40
2017-09-08T11:48:05.273Z,52.70
2017-09-08T11:50:32.840Z,51.80
2017-09-08T11:53:01.221Z,51.30
2017-09-08T11:55:28.818Z,51.30
2017-09-08T11:57:56.411Z,50.70
2017-09-08T12:00:24.008Z,51.60
2017-09-08T12:02:51.615Z,51.20
2017-09-08T12:05:19.231Z,52.10
2017-09-08T12:07:47.713Z,50.90
2017-09-08T12:10:15.340Z,50.80
2017-09-08T12:12:43.710Z,50.70
2017-09-08T12:15:11.300Z,50.70
2017-09-08T12:17:41.992Z,51.50
2017-09-08T12:20:09.788Z,51.10
2017-09-08T12:22:37.420Z,50.70
2017-09-08T12:25:04.992Z,50.70
2017-09-08T12:27:32.550Z,51.10
2017-09-08T12:30:00.155Z,49.70
2017-09-08T12:32:27.756Z,50.50
2017-09-08T12:34:55.358Z,51.20
2017-09-08T12:37:23.296Z,51.60
2017-09-08T12:39:51.180Z,50.70
2017-09-08T12:42:18.830Z,50.00
2017-09-08T12:44:46.416Z,50.00
2017-09-08T12:47:14.028Z,49.30
2017-09-08T12:49:42.617Z,50.10
2017-09-08T12:52:10.360Z,49.50
2017-09-08T12:54:37.968Z,48.60
2017-09-08T12:57:06.327Z,47.40
2017-09-08T12:59:34.701Z,46.90
2017-09-08T13:02:02.331Z,46.80
2017-09-08T13:04:29.916Z,47.10
2017-09-08T13:06:57.497Z,47.20
2017-09-08T13:09:25.162Z,46.80
2017-09-08T13:11:53.613Z,48.10
2017-09-08T13:14:21.248Z,48.50
2017-09-08T13:16:48.975Z,46.90
2017-09-08T13:19:16.563Z,47.00
2017-09-08T13:21:45.229Z,46.90
2017-09-08T13:24:12.815Z,46.40
2017-09-08T13:26:40.479Z,46.60
2017-09-08T13:29:08.038Z,47.90
2017-09-08T13:31:38.282Z,46.30
2017-09-08T13:34:06.862Z,46.20
2017-09-08T13:36:34.479Z,46.80
2017-09-08T13:39:04.062Z,46.80
2017-09-08T13:41:31.663Z,45.80
2017-09-08T13:43:59.230Z,44.90
2017-09-08T13:46:27.787Z,44.70
2017-09-08T13:48:55.386Z,44.80
2017-09-08T13:51:22.990Z,45.00
2017-09-08T13:53:50.572Z,44.70
2017-09-08T13:56:18.143Z,43.60
2017-09-08T13:58:46.011Z,43.20
2017-09-08T14:01:13.654Z,43.00
2017-09-08T14:03:42.921Z,43.40
2017-09-08T14:06:10.515Z,43.90
2017-09-08T14:08:38.289Z,43.90
2017-09-08T14:11:05.909Z,44.30
2017-09-08T14:13:33.505Z,44.10
2017-09-08T14:16:01.123Z,44.10
2017-09-08T14:18:29.762Z,44.00
2017-09-08T14:20:57.488Z,42.00
2017-09-08T14:23:25.166Z,41.70
2017-09-08T14:25:52.742Z,41.60
2017-09-08T14:28:20.340Z,43.10
2017-09-08T14:30:47.895Z,42.30
2017-09-08T14:33:15.465Z,43.10
2017-09-08T14:35:44.512Z,42.50
2017-09-08T14:38:12.094Z,43.70
2017-09-08T14:40:39.684Z,43.30
2017-09-08T14:43:07.535Z,44.40
2017-09-08T14:45:35.283Z,41.90
2017-09-08T14:48:02.918Z,41.70
2017-09-08T14:50:31.291Z,41.20
2017-09-08T14:52:58.872Z,41.20
2017-09-08T14:55:27.598Z,41.60
2017-09-08T14:57:55.187Z,41.50
2017-09-08T15:00:22.804Z,42.80
2017-09-08T15:02:50.355Z,43.80
2017-09-08T15:05:19.509Z,43.10
2017-09-08T15:07:47.317Z,43.10
2017-09-08T15:10:14.915Z,43.00
2017-09-08T15:12:42.492Z,44.20
2017-09-08T15:15:10.068Z,44.60
2017-09-08T15:17:38.092Z,45.10
2017-09-08T15:20:06.454Z,45.60
2017-09-08T15:22:34.073Z,45.20
2017-09-08T15:25:01.674Z,45.90
2017-09-08T15:27:29.255Z,45.80
2017-09-08T15:29:56.958Z,45.10
2017-09-08T15:32:24.540Z,45.70
2017-09-08T15:34:52.151Z,45.70
2017-09-08T15:37:19.715Z,46.20
2017-09-08T15:39:48.164Z,46.80
2017-09-08T15:42:15.795Z,46.70
2017-09-08T15:44:43.464Z,47.30
2017-09-08T15:47:11.051Z,46.90
2017-09-08T15:49:38.739Z,47.10
2017-09-08T15:52:06.365Z,46.50
2017-09-08T15:54:33.934Z,46.60
2017-09-08T15:57:02.143Z,47.50
2017-09-08T15:59:29.722Z,46.20
2017-09-08T16:01:58.201Z,46.80
2017-09-08T16:04:25.817Z,46.80
2017-09-08T16:06:53.434Z,46.20
2017-09-08T16:09:21.034Z,46.90
2017-09-08T16:11:48.820Z,47.00
2017-09-08T16:14:16.446Z,47.40
2017-09-08T16:16:44.034Z,47.90
2017-09-08T16:19:11.615Z,47.70
2017-09-08T16:21:39.247Z,47.90
2017-09-08T16:24:08.411Z,48.20
2017-09-08T16:26:36.010Z,48.20
2017-09-08T16:29:03.585Z,48.40
2017-09-08T16:31:31.175Z,47.90
2017-09-08T16:33:58.875Z,48.20
2017-09-08T16:36:26.500Z,48.50
2017-09-08T16:38:54.110Z,48.60
2017-09-08T16:41:21.699Z,49.20
2017-09-08T16:43:49.308Z,49.30
2017-09-08T16:46:18.087Z,49.70
2017-09-08T16:48:47.690Z,49.50
2017-09-08T16:51:15.329Z,49.50
2017-09-08T16:53:44.411Z,50.10
2017-09-08T16:56:12.887Z,50.20
2017-09-08T16:58:41.469Z,49.70
2017-09-08T17:01:09.831Z,50.90
2017-09-08T17:03:38.406Z,50.80
2017-09-08T17:06:06.789Z,50.80
2017-09-08T17:08:34.883Z,50.80
2017-09-08T17:11:02.500Z,50.90
2017-09-08T17:13:30.933Z,51.30
2017-09-08T17:15:59.119Z,51.40
2017-09-08T17:18:28.632Z,51.80
2017-09-08T17:20:56.562Z,51.70
2017-09-08T17:23:24.209Z,52.10
2017-09-08T17:25:52.595Z,52.70
2017-09-08T17:28:21.792Z,52.70
2017-09-08T17:30:49.373Z,52.40
2017-09-08T17:33:17.397Z,52.70
2017-09-08T17:35:45.016Z,53.60
2017-09-08T17:38:13.357Z,52.80
2017-09-08T17:40:43.249Z,52.80
2017-09-08T17:43:12.972Z,53.20
2017-09-08T17:45:57.297Z,53.20
2017-09-08T17:48:25.569Z,52.80
2017-09-08T17:50:54.516Z,53.10
2017-09-08T17:53:22.681Z,53.10
2017-09-08T17:55:51.085Z,53.10
2017-09-08T17:58:18.934Z,53.10
2017-09-08T18:00:48.569Z,53.50
2017-09-08T18:03:16.282Z,53.50
2017-09-08T18:05:44.629Z,53.60
2017-09-08T18:08:12.535Z,54.10
2017-09-08T18:10:40.941Z,54.40
2017-09-08T18:13:08.556Z,54.30
2017-09-08T18:15:36.433Z,54.00
2017-09-08T18:18:04.065Z,54.30
2017-09-08T18:20:32.741Z,54.20
2017-09-08T18:23:03.227Z,54.20
2017-09-08T18:25:32.852Z,53.90
2017-09-08T18:28:04.170Z,54.20
2017-09-08T18:30:33.411Z,54.40
2017-09-08T18:33:02.371Z,54.70
2017-09-08T18:35:32.798Z,54.40
2017-09-08T18:38:02.777Z,54.20
2017-09-08T18:40:31.610Z,54.60
2017-09-08T18:43:01.098Z,53.90
2017-09-08T18:45:30.716Z,54.40
2017-09-08T18:47:59.897Z,54.10
2017-09-08T18:50:30.238Z,54.20
2017-09-08T18:52:59.112Z,54.10
2017-09-08T18:55:29.368Z,54.00
2017-09-08T18:57:57.649Z,54.10
2017-09-08T19:00:27.874Z,54.20
2017-09-08T19:02:57.269Z,54.10
2017-09-08T19:05:25.596Z,54.20
2017-09-08T19:07:54.340Z,54.30
2017-09-08T19:10:23.552Z,54.60
2017-09-08T19:12:52.518Z,54.60
2017-09-08T19:15:20.776Z,54.70
2017-09-08T19:17:50.477Z,54.80
2017-09-08T19:20:20.214Z,54.70
2017-09-08T19:22:48.260Z,54.60
2017-09-08T19:25:16.187Z,54.70
2017-09-08T19:27:45.378Z,54.60
2017-09-08T19:30:14.852Z,55.20
2017-09-08T19:32:44.077Z,55.20
2017-09-08T19:35:13.288Z,54.90
2017-09-08T19:37:44.410Z,55.20
2017-09-08T19:40:16.638Z,55.80
2017-09-08T19:42:44.319Z,54.90
2017-09-08T19:45:12.501Z,54.90
2017-09-08T19:47:41.352Z,54.30
2017-09-08T19:50:08.940Z,54.70
2017-09-08T19:52:36.530Z,54.80
2017-09-08T19:55:04.865Z,55.10
2017-09-08T19:57:33.331Z,55.10
2017-09-08T20:00:00.968Z,55.10
2017-09-08T20:02:28.650Z,55.50
2017-09-08T20:04:56.270Z,55.70
2017-09-08T20:07:25.578Z,55.30
2017-09-08T20:09:53.279Z,55.70
2017-09-08T20:12:20.956Z,55.90
2017-09-08T20:14:49.555Z,55.80
2017-09-08T20:17:17.257Z,55.90
2017-09-08T20:19:44.866Z,55.90
2017-09-08T20:22:12.516Z,56.00
2017-09-08T20:24:40.929Z,56.30
2017-09-08T20:27:08.792Z,56.30
2017-09-08T20:29:38.372Z,56.20
2017-09-08T20:32:06.553Z,56.20
2017-09-08T20:34:34.447Z,55.90
2017-09-08T20:37:03.062Z,56.50
2017-09-08T20:39:31.011Z,56.40
2017-09-08T20:41:59.178Z,56.40
2017-09-08T20:44:26.917Z,56.50
2017-09-08T20:46:55.398Z,56.60
2017-09-08T20:49:23.557Z,56.50
2017-09-08T20:51:52.233Z,56.80
2017-09-08T20:54:19.845Z,57.20
2017-09-08T20:56:47.736Z,57.10
2017-09-08T20:59:16.851Z,57.30
2017-09-08T21:01:45.580Z,57.50
2017-09-08T21:04:14.294Z,57.30
2017-09-08T21:06:42.011Z,57.30
2017-09-08T21:09:09.656Z,57.00
2017-09-08T21:11:37.263Z,57.20
2017-09-08T21:14:04.857Z,57.40
2017-09-08T21:16:32.414Z,57.60
2017-09-08T21:19:00.003Z,57.80
2017-09-08T21:21:27.619Z,57.30
2017-09-08T21:23:55.209Z,57.30
2017-09-08T21:26:22.797Z,57.40
2017-09-08T21:28:50.369Z,57.70
2017-09-08T21:31:17.962Z,57.60
2017-09-08T21:33:45.532Z,57.50
2017-09-08T21:36:13.099Z,57.20
2017-09-08T21:38:40.677Z,57.60
2017-09-08T21:41:09.014Z,57.40
2017-09-08T21:43:36.600Z,57.30
2017-09-08T21:46:04.243Z,57.40
2017-09-08T21:48:31.830Z,57.40
2017-09-08T21:51:00.189Z,57.20
2017-09-08T21:53:27.779Z,57.60
2017-09-08T21:55:55.577Z,57.50
2017-09-08T21:58:23.944Z,58.00
2017-09-08T22:00:51.516Z,57.50
2017-09-08T22:03:19.111Z,57.80
2017-09-08T22:05:47.450Z,57.70
2017-09-08T22:08:15.871Z,57.60
2017-09-08T22:10:44.066Z,57.60
2017-09-08T22:13:11.645Z,57.80
2017-09-08T22:15:39.248Z,57.70
2017-09-08T22:18:06.833Z,58.00
2017-09-08T22:20:34.436Z,58.10
2017-09-08T22:23:02.029Z,57.80
2017-09-08T22:25:29.607Z,58.10
2017-09-08T22:27:58.125Z,58.10
2017-09-08T22:30:26.475Z,58.10
2017-09-08T22:32:54.070Z,58.10
2017-09-08T22:35:21.648Z,58.00
2017-09-08T22:37:49.231Z,57.90
2017-09-08T22:40:17.745Z,58.00
2017-09-08T22:42:45.304Z,58.10
2017-09-08T22:45:12.913Z,57.80
2017-09-08T22:53:27.034Z,57.90
2017-09-08T22:55:54.605Z,58.10
2017-09-08T22:58:22.183Z,58.10
2017-09-08T23:00:49.781Z,58.00
2017-09-08T23:03:17.353Z,58.10
2017-09-08T23:05:45.681Z,58.30
2017-09-08T23:08:13.260Z,58.30
2017-09-08T23:10:40.835Z,58.30
2017-09-08T23:13:09.388Z,58.40
2017-09-08T23:15:36.998Z,58.40
2017-09-08T23:18:04.574Z,58.50
2017-09-08T23:20:32.201Z,58.60
2017-09-08T23:22:59.772Z,58.50
2017-09-08T23:25:28.128Z,58.60
2017-09-08T23:27:56.445Z,58.60
2017-09-08T23:30:24.001Z,58.50
2017-09-08T23:32:51.550Z,58.70
2017-09-08T23:35:19.160Z,58.70
2017-09-08T23:37:46.745Z,58.50
2017-09-08T23:40:14.497Z,58.40
2017-09-08T23:42:42.076Z,58.50
2017-09-08T23:45:09.681Z,58.50
2017-09-08T23:47:37.262Z,58.70
2017-09-08T23:50:04.874Z,59.00
2017-09-08T23:52:32.454Z,59.10
2017-09-08T23:55:00.088Z,59.00
2017-09-08T23:57:27.699Z,59.10
2017-09-08T23:59:55.314Z,58.90
